Pagina principală
METAR-TAF:

METAR-TAF

Aeroporturi :

Grande Prairie, Alberta, Canada

Latitudine: 55-11N, longitudine: 118-53W, elevație: 666 m

Observații meteo curente

Raportul a fost făcut în urmă cu 1 oră și 0 de minute, la 00:00 UTC
Vânt 2 kt din direcții variabile
Temperatură 19°C
Umiditate 28%
Presiune 1015 hPa
Vizibilitate: 40.2 km
Nori împrăștiați la o înălțime de 5000 picior
Nori fragmentați la o înălțime de 22000 picior

METAR: CYQU 190000Z VRB02KT 25SM SCT050 BKN220 19/M00 A2996 RMK CU4CI3 SLP165 DENSITY ALT 3100FT

Ora: 19:00 (01:00 UTC)

Prognoză

Raportul a fost făcut în urmă cu 6 ore și 20 de minute, la 18:40 UTC
Prognoză valabilă de la 18 ora 19 UTC la 19 ora 07 UTC
Vânt 3 kt din direcții variabile
Vizibilitate: 10 km
Nori împrăștiați la o înălțime de 5000 picior
Nori fragmentați la o înălțime de 20000 picior

TAF: CYQU 181840Z 1819/1907 VRB03KT P6SM SCT050 BKN200 RMK NXT FCST BY 190100Z

Observații și prognoze meteo pentru peste 4.000 de aeroporturi (rapoarte METAR și TAF).

Stațiile disponibile sunt reprezentate pe hartă prin puncte galbene și roșii.

Țineți indicatorul mouse-ului pe punctul dorit pentru a vedea denumirea stației.

Apoi, faceți clic pentru a vedea observațiile și prognozele meteorologice.

Pentru a schimba harta: Pentru mărire, faceți clic pe butoanele verzi cu cruce neagră; pentru micșorare, pe butonul verde cu o liniuță; pentru hărți învecinate, pe săgețile verzi.


METAR-TAF: